Terminal Aerodrome Forecast
Issued by NWS

Home | Current Version | Previous Version | Text Only | Print | Product List | Glossary On
Versions: 1 2 3 4 5 6 7 8 9 10 11 12 13 14 15 16 17
000
FTUS41 KGYX 180520
TAFPSM
TAF
KPSM 180520Z 1806/1906 07007KT 4SM -RASN BR OVC005
     FM181300 05008KT 4SM -SN OVC004
     FM181800 06008KT 4SM -SHSN BR OVC008
     FM182300 06005KT 4SM BR OVC004 PROB30 1823/1824 2SM -SN BR
      OVC007=

USA.gov is the U.S. government's official web portal to all federal, state and local government web resources and services.